sensor_id;sensor_type;location;lat;lon;timestamp;P1;durP1;ratioP1;P2;durP2;ratioP2
14066;SDS011;7108;42.684;23.350;2022-09-11T00:01:16;226.47;;;118.30;;
14066;SDS011;7108;42.684;23.350;2022-09-11T00:03:43;214.60;;;123.60;;
14066;SDS011;7108;42.684;23.350;2022-09-11T00:06:10;241.93;;;125.00;;
14066;SDS011;7108;42.684;23.350;2022-09-11T00:08:39;227.70;;;125.90;;
14066;SDS011;7108;42.684;23.350;2022-09-11T00:11:07;238.43;;;128.10;;
14066;SDS011;7108;42.684;23.350;2022-09-11T00:13:35;231.40;;;124.43;;
14066;SDS011;7108;42.684;23.350;2022-09-11T00:16:02;237.10;;;124.33;;
14066;SDS011;7108;42.684;23.350;2022-09-11T00:18:30;220.40;;;123.90;;
14066;SDS011;7108;42.684;23.350;2022-09-11T00:21:00;229.63;;;126.50;;
14066;SDS011;7108;42.684;23.350;2022-09-11T00:23:26;211.53;;;124.33;;
14066;SDS011;7108;42.684;23.350;2022-09-11T00:25:52;235.60;;;125.27;;
14066;SDS011;7108;42.684;23.350;2022-09-11T00:28:19;219.33;;;122.13;;
14066;SDS011;7108;42.684;23.350;2022-09-11T00:31:01;221.73;;;123.53;;
14066;SDS011;7108;42.684;23.350;2022-09-11T00:33:30;225.10;;;127.97;;
14066;SDS011;7108;42.684;23.350;2022-09-11T00:36:01;223.90;;;126.60;;
14066;SDS011;7108;42.684;23.350;2022-09-11T00:38:31;231.47;;;123.57;;
14066;SDS011;7108;42.684;23.350;2022-09-11T00:40:59;233.43;;;124.10;;
14066;SDS011;7108;42.684;23.350;2022-09-11T00:43:26;212.37;;;119.60;;
14066;SDS011;7108;42.684;23.350;2022-09-11T00:45:57;224.57;;;122.10;;
14066;SDS011;7108;42.684;23.350;2022-09-11T00:48:26;216.60;;;122.97;;
14066;SDS011;7108;42.684;23.350;2022-09-11T00:50:55;228.40;;;126.20;;
14066;SDS011;7108;42.684;23.350;2022-09-11T00:53:23;213.97;;;123.00;;
14066;SDS011;7108;42.684;23.350;2022-09-11T00:55:55;226.90;;;127.83;;
14066;SDS011;7108;42.684;23.350;2022-09-11T00:58:25;226.40;;;125.30;;
14066;SDS011;7108;42.684;23.350;2022-09-11T01:00:55;237.03;;;130.10;;
14066;SDS011;7108;42.684;23.350;2022-09-11T01:03:21;222.00;;;124.40;;
14066;SDS011;7108;42.684;23.350;2022-09-11T01:05:48;212.03;;;124.17;;
14066;SDS011;7108;42.684;23.350;2022-09-11T01:08:16;233.97;;;126.23;;
14066;SDS011;7108;42.684;23.350;2022-09-11T01:18:52;232.67;;;126.77;;
14066;SDS011;7108;42.684;23.350;2022-09-11T01:21:45;215.77;;;122.67;;
14066;SDS011;7108;42.684;23.350;2022-09-11T01:27:33;221.17;;;118.70;;
14066;SDS011;7108;42.684;23.350;2022-09-11T01:30:17;247.70;;;128.83;;
14066;SDS011;7108;42.684;23.350;2022-09-11T01:32:50;242.30;;;125.23;;
14066;SDS011;7108;42.684;23.350;2022-09-11T01:35:18;234.13;;;127.47;;
14066;SDS011;7108;42.684;23.350;2022-09-11T01:37:59;220.53;;;123.20;;
14066;SDS011;7108;42.684;23.350;2022-09-11T01:43:03;228.57;;;120.73;;
14066;SDS011;7108;42.684;23.350;2022-09-11T01:45:37;234.90;;;121.40;;
14066;SDS011;7108;42.684;23.350;2022-09-11T01:48:06;233.83;;;123.47;;
14066;SDS011;7108;42.684;23.350;2022-09-11T01:50:33;229.67;;;126.00;;
14066;SDS011;7108;42.684;23.350;2022-09-11T01:53:02;231.83;;;125.97;;
14066;SDS011;7108;42.684;23.350;2022-09-11T01:55:35;225.37;;;124.40;;
14066;SDS011;7108;42.684;23.350;2022-09-11T01:58:14;222.17;;;126.20;;
14066;SDS011;7108;42.684;23.350;2022-09-11T02:00:46;214.40;;;120.00;;
14066;SDS011;7108;42.684;23.350;2022-09-11T02:03:20;242.13;;;126.60;;
14066;SDS011;7108;42.684;23.350;2022-09-11T02:06:02;214.50;;;122.20;;
14066;SDS011;7108;42.684;23.350;2022-09-11T02:11:06;243.67;;;128.10;;
14066;SDS011;7108;42.684;23.350;2022-09-11T02:19:00;231.90;;;125.60;;
14066;SDS011;7108;42.684;23.350;2022-09-11T02:21:28;218.47;;;124.70;;
14066;SDS011;7108;42.684;23.350;2022-09-11T02:23:55;227.87;;;127.13;;
14066;SDS011;7108;42.684;23.350;2022-09-11T02:26:25;214.70;;;123.80;;
14066;SDS011;7108;42.684;23.350;2022-09-11T02:28:53;212.70;;;125.27;;
14066;SDS011;7108;42.684;23.350;2022-09-11T02:31:19;237.00;;;129.37;;
14066;SDS011;7108;42.684;23.350;2022-09-11T02:33:46;234.30;;;129.67;;
14066;SDS011;7108;42.684;23.350;2022-09-11T02:46:53;240.23;;;129.83;;
14066;SDS011;7108;42.684;23.350;2022-09-11T02:49:38;212.67;;;123.57;;
14066;SDS011;7108;42.684;23.350;2022-09-11T02:52:20;230.17;;;130.23;;
14066;SDS011;7108;42.684;23.350;2022-09-11T02:54:55;241.30;;;130.67;;
14066;SDS011;7108;42.684;23.350;2022-09-11T02:57:44;213.90;;;123.97;;
14066;SDS011;7108;42.684;23.350;2022-09-11T03:00:16;221.50;;;123.83;;
14066;SDS011;7108;42.684;23.350;2022-09-11T03:02:41;226.67;;;126.27;;
14066;SDS011;7108;42.684;23.350;2022-09-11T03:05:08;225.80;;;123.93;;
14066;SDS011;7108;42.684;23.350;2022-09-11T03:07:35;212.83;;;123.33;;
14066;SDS011;7108;42.684;23.350;2022-09-11T03:10:01;219.77;;;127.43;;
14066;SDS011;7108;42.684;23.350;2022-09-11T03:12:26;217.43;;;124.23;;
14066;SDS011;7108;42.684;23.350;2022-09-11T03:14:52;233.90;;;128.00;;
14066;SDS011;7108;42.684;23.350;2022-09-11T03:17:18;224.97;;;125.83;;
14066;SDS011;7108;42.684;23.350;2022-09-11T03:19:44;229.77;;;126.10;;
14066;SDS011;7108;42.684;23.350;2022-09-11T03:22:09;223.77;;;126.87;;
14066;SDS011;7108;42.684;23.350;2022-09-11T03:24:35;230.10;;;128.47;;
14066;SDS011;7108;42.684;23.350;2022-09-11T03:27:00;223.00;;;129.27;;
14066;SDS011;7108;42.684;23.350;2022-09-11T03:29:26;222.13;;;125.80;;
14066;SDS011;7108;42.684;23.350;2022-09-11T03:31:52;231.87;;;126.40;;
14066;SDS011;7108;42.684;23.350;2022-09-11T03:34:17;225.23;;;125.80;;
14066;SDS011;7108;42.684;23.350;2022-09-11T03:36:43;229.03;;;126.23;;
14066;SDS011;7108;42.684;23.350;2022-09-11T03:39:09;219.50;;;123.33;;
14066;SDS011;7108;42.684;23.350;2022-09-11T03:41:35;226.10;;;124.77;;
14066;SDS011;7108;42.684;23.350;2022-09-11T03:44:00;222.90;;;125.20;;
14066;SDS011;7108;42.684;23.350;2022-09-11T03:46:26;235.60;;;127.93;;
14066;SDS011;7108;42.684;23.350;2022-09-11T03:48:52;219.00;;;126.43;;
14066;SDS011;7108;42.684;23.350;2022-09-11T03:51:17;236.47;;;127.47;;
14066;SDS011;7108;42.684;23.350;2022-09-11T03:53:43;225.90;;;127.83;;
14066;SDS011;7108;42.684;23.350;2022-09-11T03:56:08;224.60;;;127.07;;
14066;SDS011;7108;42.684;23.350;2022-09-11T03:58:35;217.97;;;125.10;;
14066;SDS011;7108;42.684;23.350;2022-09-11T04:01:06;234.67;;;126.07;;
14066;SDS011;7108;42.684;23.350;2022-09-11T04:03:33;216.93;;;123.13;;
14066;SDS011;7108;42.684;23.350;2022-09-11T04:05:59;226.67;;;127.40;;
14066;SDS011;7108;42.684;23.350;2022-09-11T04:08:26;220.67;;;124.63;;
14066;SDS011;7108;42.684;23.350;2022-09-11T04:10:57;245.93;;;132.67;;
14066;SDS011;7108;42.684;23.350;2022-09-11T04:13:28;227.80;;;130.27;;
14066;SDS011;7108;42.684;23.350;2022-09-11T04:15:59;228.03;;;129.63;;
14066;SDS011;7108;42.684;23.350;2022-09-11T04:18:27;226.73;;;123.60;;
14066;SDS011;7108;42.684;23.350;2022-09-11T04:20:54;241.47;;;125.70;;
14066;SDS011;7108;42.684;23.350;2022-09-11T04:23:20;230.90;;;126.67;;
14066;SDS011;7108;42.684;23.350;2022-09-11T04:25:46;231.97;;;129.50;;
14066;SDS011;7108;42.684;23.350;2022-09-11T04:28:12;221.63;;;124.00;;
14066;SDS011;7108;42.684;23.350;2022-09-11T04:30:38;223.27;;;124.57;;
14066;SDS011;7108;42.684;23.350;2022-09-11T04:33:04;238.90;;;125.30;;
14066;SDS011;7108;42.684;23.350;2022-09-11T04:35:30;231.40;;;125.73;;
14066;SDS011;7108;42.684;23.350;2022-09-11T04:37:57;217.23;;;125.13;;
14066;SDS011;7108;42.684;23.350;2022-09-11T04:40:22;236.00;;;126.47;;
14066;SDS011;7108;42.684;23.350;2022-09-11T04:42:47;227.47;;;125.53;;
14066;SDS011;7108;42.684;23.350;2022-09-11T04:45:13;216.40;;;124.87;;
14066;SDS011;7108;42.684;23.350;2022-09-11T04:47:38;220.13;;;124.23;;
14066;SDS011;7108;42.684;23.350;2022-09-11T04:50:05;221.73;;;125.50;;
14066;SDS011;7108;42.684;23.350;2022-09-11T04:52:31;237.67;;;121.80;;
14066;SDS011;7108;42.684;23.350;2022-09-11T04:54:58;237.17;;;125.63;;
14066;SDS011;7108;42.684;23.350;2022-09-11T04:57:23;224.43;;;126.00;;
14066;SDS011;7108;42.684;23.350;2022-09-11T04:59:49;218.13;;;125.00;;
14066;SDS011;7108;42.684;23.350;2022-09-11T05:02:15;213.07;;;123.10;;
14066;SDS011;7108;42.684;23.350;2022-09-11T05:04:41;209.67;;;121.67;;
14066;SDS011;7108;42.684;23.350;2022-09-11T05:07:06;226.80;;;126.20;;
14066;SDS011;7108;42.684;23.350;2022-09-11T05:09:32;248.90;;;138.73;;
14066;SDS011;7108;42.684;23.350;2022-09-11T05:11:57;286.87;;;149.17;;
14066;SDS011;7108;42.684;23.350;2022-09-11T05:14:23;256.40;;;130.17;;
14066;SDS011;7108;42.684;23.350;2022-09-11T05:16:49;230.70;;;129.70;;
14066;SDS011;7108;42.684;23.350;2022-09-11T05:19:16;218.27;;;124.13;;
14066;SDS011;7108;42.684;23.350;2022-09-11T05:21:43;232.43;;;124.50;;
14066;SDS011;7108;42.684;23.350;2022-09-11T05:24:08;224.70;;;125.87;;
14066;SDS011;7108;42.684;23.350;2022-09-11T05:26:34;216.37;;;126.83;;
14066;SDS011;7108;42.684;23.350;2022-09-11T05:29:05;242.73;;;125.80;;
14066;SDS011;7108;42.684;23.350;2022-09-11T05:31:33;272.30;;;133.23;;
14066;SDS011;7108;42.684;23.350;2022-09-11T05:33:59;220.40;;;123.17;;
14066;SDS011;7108;42.684;23.350;2022-09-11T05:36:25;232.87;;;125.97;;
14066;SDS011;7108;42.684;23.350;2022-09-11T05:38:52;238.43;;;121.33;;
14066;SDS011;7108;42.684;23.350;2022-09-11T05:41:18;219.27;;;109.63;;
14066;SDS011;7108;42.684;23.350;2022-09-11T05:43:45;228.30;;;112.43;;
14066;SDS011;7108;42.684;23.350;2022-09-11T05:46:11;221.50;;;104.03;;
14066;SDS011;7108;42.684;23.350;2022-09-11T05:48:38;221.00;;;99.73;;
14066;SDS011;7108;42.684;23.350;2022-09-11T05:51:07;239.27;;;102.30;;
14066;SDS011;7108;42.684;23.350;2022-09-11T05:53:35;220.73;;;102.17;;
14066;SDS011;7108;42.684;23.350;2022-09-11T05:56:09;244.53;;;106.77;;
14066;SDS011;7108;42.684;23.350;2022-09-11T05:58:37;225.63;;;101.50;;
14066;SDS011;7108;42.684;23.350;2022-09-11T06:01:04;232.70;;;103.73;;
14066;SDS011;7108;42.684;23.350;2022-09-11T06:03:32;234.77;;;102.87;;
14066;SDS011;7108;42.684;23.350;2022-09-11T06:05:59;236.33;;;104.20;;
14066;SDS011;7108;42.684;23.350;2022-09-11T06:08:26;241.03;;;105.60;;
14066;SDS011;7108;42.684;23.350;2022-09-11T06:10:51;227.20;;;106.30;;
14066;SDS011;7108;42.684;23.350;2022-09-11T06:13:16;216.70;;;101.90;;
14066;SDS011;7108;42.684;23.350;2022-09-11T06:15:43;220.60;;;105.60;;
14066;SDS011;7108;42.684;23.350;2022-09-11T06:18:09;232.50;;;109.80;;
14066;SDS011;7108;42.684;23.350;2022-09-11T06:20:34;217.03;;;108.23;;
14066;SDS011;7108;42.684;23.350;2022-09-11T06:23:00;269.93;;;120.97;;
14066;SDS011;7108;42.684;23.350;2022-09-11T06:25:25;236.00;;;120.00;;
14066;SDS011;7108;42.684;23.350;2022-09-11T06:27:51;227.77;;;116.53;;
14066;SDS011;7108;42.684;23.350;2022-09-11T06:30:16;211.67;;;114.73;;
14066;SDS011;7108;42.684;23.350;2022-09-11T06:32:41;244.97;;;120.73;;
14066;SDS011;7108;42.684;23.350;2022-09-11T06:35:07;245.50;;;123.13;;
14066;SDS011;7108;42.684;23.350;2022-09-11T06:37:33;257.30;;;133.80;;
14066;SDS011;7108;42.684;23.350;2022-09-11T06:39:59;239.67;;;125.63;;
14066;SDS011;7108;42.684;23.350;2022-09-11T06:42:26;221.43;;;120.30;;
14066;SDS011;7108;42.684;23.350;2022-09-11T06:44:52;230.37;;;120.70;;
14066;SDS011;7108;42.684;23.350;2022-09-11T06:47:17;231.27;;;125.73;;
14066;SDS011;7108;42.684;23.350;2022-09-11T06:49:42;222.57;;;121.50;;
14066;SDS011;7108;42.684;23.350;2022-09-11T06:52:08;248.37;;;124.43;;
14066;SDS011;7108;42.684;23.350;2022-09-11T06:54:33;224.67;;;120.23;;
14066;SDS011;7108;42.684;23.350;2022-09-11T06:56:59;240.07;;;123.27;;
14066;SDS011;7108;42.684;23.350;2022-09-11T06:59:24;222.70;;;126.10;;
14066;SDS011;7108;42.684;23.350;2022-09-11T07:01:49;239.67;;;128.00;;
14066;SDS011;7108;42.684;23.350;2022-09-11T07:04:15;211.93;;;121.43;;
14066;SDS011;7108;42.684;23.350;2022-09-11T07:06:41;221.43;;;123.80;;
14066;SDS011;7108;42.684;23.350;2022-09-11T07:09:08;245.33;;;127.37;;
14066;SDS011;7108;42.684;23.350;2022-09-11T07:11:35;229.90;;;122.30;;
14066;SDS011;7108;42.684;23.350;2022-09-11T07:14:02;246.23;;;129.37;;
14066;SDS011;7108;42.684;23.350;2022-09-11T07:16:30;236.00;;;124.47;;
14066;SDS011;7108;42.684;23.350;2022-09-11T07:18:56;237.30;;;122.53;;
14066;SDS011;7108;42.684;23.350;2022-09-11T07:21:23;209.30;;;119.73;;
14066;SDS011;7108;42.684;23.350;2022-09-11T07:23:54;216.13;;;120.37;;
14066;SDS011;7108;42.684;23.350;2022-09-11T07:26:22;219.70;;;121.33;;
14066;SDS011;7108;42.684;23.350;2022-09-11T07:28:50;220.57;;;121.87;;
14066;SDS011;7108;42.684;23.350;2022-09-11T07:31:18;212.23;;;115.33;;
14066;SDS011;7108;42.684;23.350;2022-09-11T07:33:45;238.53;;;120.90;;
14066;SDS011;7108;42.684;23.350;2022-09-11T07:36:21;244.77;;;121.87;;
14066;SDS011;7108;42.684;23.350;2022-09-11T07:38:49;218.93;;;121.47;;
14066;SDS011;7108;42.684;23.350;2022-09-11T07:41:16;216.23;;;120.57;;
14066;SDS011;7108;42.684;23.350;2022-09-11T07:43:43;225.43;;;119.63;;
14066;SDS011;7108;42.684;23.350;2022-09-11T07:46:14;229.87;;;120.40;;
14066;SDS011;7108;42.684;23.350;2022-09-11T07:48:40;217.57;;;120.27;;
14066;SDS011;7108;42.684;23.350;2022-09-11T07:51:10;241.87;;;123.60;;
14066;SDS011;7108;42.684;23.350;2022-09-11T07:53:38;228.37;;;120.90;;
14066;SDS011;7108;42.684;23.350;2022-09-11T07:56:09;237.70;;;123.90;;
14066;SDS011;7108;42.684;23.350;2022-09-11T07:58:37;241.63;;;121.83;;
14066;SDS011;7108;42.684;23.350;2022-09-11T08:01:04;257.33;;;123.73;;
14066;SDS011;7108;42.684;23.350;2022-09-11T08:03:31;229.50;;;117.20;;
14066;SDS011;7108;42.684;23.350;2022-09-11T08:05:58;213.40;;;114.47;;
14066;SDS011;7108;42.684;23.350;2022-09-11T08:08:24;220.07;;;116.80;;
14066;SDS011;7108;42.684;23.350;2022-09-11T08:10:59;221.77;;;122.70;;
14066;SDS011;7108;42.684;23.350;2022-09-11T08:13:26;209.57;;;118.33;;
14066;SDS011;7108;42.684;23.350;2022-09-11T08:15:52;223.73;;;126.03;;
14066;SDS011;7108;42.684;23.350;2022-09-11T08:18:18;222.70;;;117.33;;
14066;SDS011;7108;42.684;23.350;2022-09-11T08:20:43;228.70;;;122.17;;
14066;SDS011;7108;42.684;23.350;2022-09-11T08:23:09;241.23;;;125.60;;
14066;SDS011;7108;42.684;23.350;2022-09-11T08:25:35;218.10;;;117.37;;
14066;SDS011;7108;42.684;23.350;2022-09-11T08:28:02;224.10;;;119.27;;
14066;SDS011;7108;42.684;23.350;2022-09-11T08:30:28;218.67;;;119.13;;
14066;SDS011;7108;42.684;23.350;2022-09-11T08:32:54;215.67;;;118.83;;
14066;SDS011;7108;42.684;23.350;2022-09-11T08:35:19;220.73;;;117.47;;
14066;SDS011;7108;42.684;23.350;2022-09-11T08:37:45;227.20;;;118.80;;
14066;SDS011;7108;42.684;23.350;2022-09-11T08:40:10;230.80;;;121.00;;
14066;SDS011;7108;42.684;23.350;2022-09-11T08:42:40;243.43;;;123.07;;
14066;SDS011;7108;42.684;23.350;2022-09-11T08:45:12;257.13;;;126.00;;
14066;SDS011;7108;42.684;23.350;2022-09-11T08:47:53;211.63;;;113.57;;
14066;SDS011;7108;42.684;23.350;2022-09-11T08:50:27;226.40;;;118.93;;
14066;SDS011;7108;42.684;23.350;2022-09-11T08:53:04;230.43;;;116.03;;
14066;SDS011;7108;42.684;23.350;2022-09-11T08:55:37;215.40;;;117.93;;
14066;SDS011;7108;42.684;23.350;2022-09-11T08:58:24;236.27;;;117.00;;
14066;SDS011;7108;42.684;23.350;2022-09-11T09:07:27;251.60;;;124.57;;
14066;SDS011;7108;42.684;23.350;2022-09-11T09:17:59;218.97;;;120.53;;
14066;SDS011;7108;42.684;23.350;2022-09-11T09:20:31;231.23;;;115.37;;
14066;SDS011;7108;42.684;23.350;2022-09-11T09:23:00;233.90;;;120.17;;
14066;SDS011;7108;42.684;23.350;2022-09-11T09:25:33;224.63;;;123.27;;
14066;SDS011;7108;42.684;23.350;2022-09-11T09:30:52;221.97;;;116.70;;
14066;SDS011;7108;42.684;23.350;2022-09-11T09:36:18;224.00;;;119.37;;
14066;SDS011;7108;42.684;23.350;2022-09-11T09:38:45;236.10;;;116.67;;
14066;SDS011;7108;42.684;23.350;2022-09-11T09:48:50;220.50;;;114.07;;
14066;SDS011;7108;42.684;23.350;2022-09-11T09:51:16;241.63;;;117.43;;
14066;SDS011;7108;42.684;23.350;2022-09-11T09:56:08;268.30;;;120.93;;
14066;SDS011;7108;42.684;23.350;2022-09-11T09:58:41;394.03;;;204.83;;
14066;SDS011;7108;42.684;23.350;2022-09-11T10:04:10;280.00;;;120.63;;
14066;SDS011;7108;42.684;23.350;2022-09-11T10:06:37;247.73;;;118.97;;
14066;SDS011;7108;42.684;23.350;2022-09-11T10:09:03;266.30;;;123.80;;
14066;SDS011;7108;42.684;23.350;2022-09-11T10:11:28;275.03;;;121.63;;
14066;SDS011;7108;42.684;23.350;2022-09-11T10:13:54;273.90;;;128.50;;
14066;SDS011;7108;42.684;23.350;2022-09-11T10:16:21;270.87;;;128.40;;
14066;SDS011;7108;42.684;23.350;2022-09-11T10:18:52;287.67;;;130.73;;
14066;SDS011;7108;42.684;23.350;2022-09-11T10:21:20;281.97;;;126.47;;
14066;SDS011;7108;42.684;23.350;2022-09-11T10:26:16;284.77;;;127.37;;
14066;SDS011;7108;42.684;23.350;2022-09-11T10:28:48;269.90;;;122.57;;
14066;SDS011;7108;42.684;23.350;2022-09-11T10:31:13;288.93;;;129.87;;
14066;SDS011;7108;42.684;23.350;2022-09-11T10:34:01;275.43;;;126.70;;
14066;SDS011;7108;42.684;23.350;2022-09-11T10:36:28;278.47;;;127.90;;
14066;SDS011;7108;42.684;23.350;2022-09-11T10:38:55;292.40;;;129.87;;
14066;SDS011;7108;42.684;23.350;2022-09-11T10:41:24;273.13;;;125.20;;
14066;SDS011;7108;42.684;23.350;2022-09-11T10:43:52;277.23;;;126.07;;
14066;SDS011;7108;42.684;23.350;2022-09-11T10:46:36;276.60;;;128.67;;
14066;SDS011;7108;42.684;23.350;2022-09-11T10:51:36;278.63;;;123.97;;
14066;SDS011;7108;42.684;23.350;2022-09-11T10:59:36;271.37;;;121.47;;
14066;SDS011;7108;42.684;23.350;2022-09-11T11:04:58;276.27;;;127.90;;
14066;SDS011;7108;42.684;23.350;2022-09-11T11:07:52;271.83;;;124.27;;
14066;SDS011;7108;42.684;23.350;2022-09-11T11:10:23;248.90;;;119.93;;
14066;SDS011;7108;42.684;23.350;2022-09-11T11:15:50;260.73;;;124.00;;
14066;SDS011;7108;42.684;23.350;2022-09-11T11:21:51;283.60;;;127.70;;
14066;SDS011;7108;42.684;23.350;2022-09-11T11:35:41;277.67;;;125.23;;
14066;SDS011;7108;42.684;23.350;2022-09-11T11:38:19;289.90;;;131.00;;
14066;SDS011;7108;42.684;23.350;2022-09-11T11:40:53;275.10;;;135.53;;
14066;SDS011;7108;42.684;23.350;2022-09-11T11:43:25;288.20;;;137.40;;
14066;SDS011;7108;42.684;23.350;2022-09-11T11:46:42;292.43;;;131.20;;
14066;SDS011;7108;42.684;23.350;2022-09-11T11:49:08;282.97;;;127.97;;
14066;SDS011;7108;42.684;23.350;2022-09-11T11:51:59;269.20;;;123.37;;
14066;SDS011;7108;42.684;23.350;2022-09-11T11:54:58;281.20;;;125.43;;
14066;SDS011;7108;42.684;23.350;2022-09-11T11:57:39;285.20;;;125.37;;
14066;SDS011;7108;42.684;23.350;2022-09-11T12:00:12;275.50;;;124.07;;
14066;SDS011;7108;42.684;23.350;2022-09-11T12:02:52;292.43;;;138.40;;
14066;SDS011;7108;42.684;23.350;2022-09-11T12:05:23;355.40;;;189.93;;
14066;SDS011;7108;42.684;23.350;2022-09-11T12:07:51;296.00;;;130.77;;
14066;SDS011;7108;42.684;23.350;2022-09-11T12:10:19;264.13;;;122.97;;
14066;SDS011;7108;42.684;23.350;2022-09-11T12:13:07;273.47;;;121.87;;
14066;SDS011;7108;42.684;23.350;2022-09-11T12:15:37;262.97;;;120.53;;
14066;SDS011;7108;42.684;23.350;2022-09-11T12:18:04;266.47;;;121.37;;
14066;SDS011;7108;42.684;23.350;2022-09-11T12:20:45;273.23;;;121.03;;
14066;SDS011;7108;42.684;23.350;2022-09-11T12:28:35;295.93;;;129.63;;
14066;SDS011;7108;42.684;23.350;2022-09-11T12:31:05;321.17;;;133.83;;
14066;SDS011;7108;42.684;23.350;2022-09-11T12:36:15;294.50;;;128.20;;
14066;SDS011;7108;42.684;23.350;2022-09-11T12:39:16;302.17;;;127.17;;
14066;SDS011;7108;42.684;23.350;2022-09-11T12:41:49;282.37;;;124.60;;
14066;SDS011;7108;42.684;23.350;2022-09-11T12:47:09;288.43;;;130.90;;
14066;SDS011;7108;42.684;23.350;2022-09-11T12:49:42;271.33;;;125.03;;
14066;SDS011;7108;42.684;23.350;2022-09-11T12:52:25;282.60;;;125.77;;
14066;SDS011;7108;42.684;23.350;2022-09-11T12:54:55;301.70;;;126.70;;
14066;SDS011;7108;42.684;23.350;2022-09-11T12:57:27;286.70;;;128.60;;
14066;SDS011;7108;42.684;23.350;2022-09-11T13:00:00;300.97;;;127.80;;
14066;SDS011;7108;42.684;23.350;2022-09-11T13:02:38;304.67;;;132.13;;
14066;SDS011;7108;42.684;23.350;2022-09-11T13:05:19;315.13;;;134.33;;
14066;SDS011;7108;42.684;23.350;2022-09-11T13:07:53;296.17;;;131.07;;
14066;SDS011;7108;42.684;23.350;2022-09-11T13:10:33;284.30;;;125.80;;
14066;SDS011;7108;42.684;23.350;2022-09-11T13:13:03;305.23;;;132.83;;
14066;SDS011;7108;42.684;23.350;2022-09-11T13:15:41;269.73;;;126.83;;
14066;SDS011;7108;42.684;23.350;2022-09-11T13:23:34;248.27;;;121.80;;
14066;SDS011;7108;42.684;23.350;2022-09-11T13:25:59;253.17;;;123.83;;
14066;SDS011;7108;42.684;23.350;2022-09-11T13:28:28;247.80;;;123.93;;
14066;SDS011;7108;42.684;23.350;2022-09-11T13:30:57;249.80;;;121.77;;
14066;SDS011;7108;42.684;23.350;2022-09-11T13:33:26;251.03;;;123.80;;
14066;SDS011;7108;42.684;23.350;2022-09-11T13:35:57;243.03;;;120.53;;
14066;SDS011;7108;42.684;23.350;2022-09-11T13:38:28;292.57;;;128.77;;
14066;SDS011;7108;42.684;23.350;2022-09-11T13:40:57;315.07;;;134.50;;
14066;SDS011;7108;42.684;23.350;2022-09-11T13:43:31;299.60;;;131.57;;
14066;SDS011;7108;42.684;23.350;2022-09-11T13:46:14;317.50;;;131.30;;
14066;SDS011;7108;42.684;23.350;2022-09-11T13:48:44;285.67;;;129.07;;
14066;SDS011;7108;42.684;23.350;2022-09-11T13:51:14;322.33;;;132.30;;
14066;SDS011;7108;42.684;23.350;2022-09-11T13:53:43;285.10;;;125.53;;
14066;SDS011;7108;42.684;23.350;2022-09-11T13:59:25;288.27;;;127.83;;
14066;SDS011;7108;42.684;23.350;2022-09-11T14:02:00;308.03;;;130.83;;
14066;SDS011;7108;42.684;23.350;2022-09-11T14:04:29;304.77;;;130.17;;
14066;SDS011;7108;42.684;23.350;2022-09-11T14:06:56;278.30;;;132.10;;
14066;SDS011;7108;42.684;23.350;2022-09-11T14:09:22;287.27;;;131.77;;
14066;SDS011;7108;42.684;23.350;2022-09-11T14:11:48;287.83;;;129.67;;
14066;SDS011;7108;42.684;23.350;2022-09-11T14:14:18;303.03;;;135.93;;
14066;SDS011;7108;42.684;23.350;2022-09-11T14:16:50;299.60;;;132.93;;
14066;SDS011;7108;42.684;23.350;2022-09-11T14:19:20;278.73;;;124.23;;
14066;SDS011;7108;42.684;23.350;2022-09-11T14:21:48;290.00;;;129.50;;
14066;SDS011;7108;42.684;23.350;2022-09-11T14:24:26;288.30;;;124.10;;
14066;SDS011;7108;42.684;23.350;2022-09-11T14:26:53;292.03;;;125.70;;
14066;SDS011;7108;42.684;23.350;2022-09-11T14:29:26;264.97;;;124.27;;
14066;SDS011;7108;42.684;23.350;2022-09-11T14:34:59;272.47;;;127.03;;
14066;SDS011;7108;42.684;23.350;2022-09-11T14:37:26;260.53;;;124.07;;
14066;SDS011;7108;42.684;23.350;2022-09-11T14:39:56;288.13;;;126.57;;
14066;SDS011;7108;42.684;23.350;2022-09-11T14:42:27;286.63;;;129.40;;
14066;SDS011;7108;42.684;23.350;2022-09-11T14:44:56;301.63;;;135.57;;
14066;SDS011;7108;42.684;23.350;2022-09-11T14:47:23;304.20;;;130.13;;
14066;SDS011;7108;42.684;23.350;2022-09-11T14:49:51;273.57;;;125.03;;
14066;SDS011;7108;42.684;23.350;2022-09-11T14:52:19;304.67;;;128.97;;
14066;SDS011;7108;42.684;23.350;2022-09-11T14:54:52;243.50;;;120.83;;
14066;SDS011;7108;42.684;23.350;2022-09-11T14:57:19;307.83;;;131.37;;
14066;SDS011;7108;42.684;23.350;2022-09-11T14:59:47;306.00;;;131.63;;
14066;SDS011;7108;42.684;23.350;2022-09-11T15:02:17;312.10;;;131.10;;
14066;SDS011;7108;42.684;23.350;2022-09-11T15:04:45;311.10;;;132.83;;
14066;SDS011;7108;42.684;23.350;2022-09-11T15:07:12;284.00;;;126.03;;
14066;SDS011;7108;42.684;23.350;2022-09-11T15:09:39;258.07;;;124.20;;
14066;SDS011;7108;42.684;23.350;2022-09-11T15:12:06;310.13;;;133.10;;
14066;SDS011;7108;42.684;23.350;2022-09-11T15:14:36;283.47;;;125.07;;
14066;SDS011;7108;42.684;23.350;2022-09-11T15:17:03;312.47;;;130.83;;
14066;SDS011;7108;42.684;23.350;2022-09-11T15:19:30;280.20;;;124.83;;
14066;SDS011;7108;42.684;23.350;2022-09-11T15:21:56;291.87;;;129.30;;
14066;SDS011;7108;42.684;23.350;2022-09-11T15:24:25;291.37;;;127.60;;
14066;SDS011;7108;42.684;23.350;2022-09-11T15:26:51;298.10;;;132.27;;
14066;SDS011;7108;42.684;23.350;2022-09-11T15:29:18;308.80;;;130.33;;
14066;SDS011;7108;42.684;23.350;2022-09-11T15:31:45;329.40;;;134.93;;
14066;SDS011;7108;42.684;23.350;2022-09-11T15:34:12;306.30;;;127.63;;
14066;SDS011;7108;42.684;23.350;2022-09-11T15:36:41;308.13;;;129.57;;
14066;SDS011;7108;42.684;23.350;2022-09-11T15:39:13;585.27;;;318.40;;
14066;SDS011;7108;42.684;23.350;2022-09-11T15:41:40;308.73;;;151.83;;
14066;SDS011;7108;42.684;23.350;2022-09-11T15:44:10;275.73;;;132.13;;
14066;SDS011;7108;42.684;23.350;2022-09-11T15:46:46;259.77;;;122.27;;
14066;SDS011;7108;42.684;23.350;2022-09-11T15:49:13;278.83;;;125.87;;
14066;SDS011;7108;42.684;23.350;2022-09-11T15:51:39;263.13;;;123.33;;
14066;SDS011;7108;42.684;23.350;2022-09-11T15:54:05;245.57;;;122.57;;
14066;SDS011;7108;42.684;23.350;2022-09-11T15:56:31;235.10;;;116.90;;
14066;SDS011;7108;42.684;23.350;2022-09-11T15:58:59;247.07;;;119.00;;
14066;SDS011;7108;42.684;23.350;2022-09-11T16:01:29;239.47;;;121.13;;
14066;SDS011;7108;42.684;23.350;2022-09-11T16:04:00;239.60;;;119.67;;
14066;SDS011;7108;42.684;23.350;2022-09-11T16:06:29;247.63;;;122.17;;
14066;SDS011;7108;42.684;23.350;2022-09-11T16:09:03;232.13;;;117.17;;